Latest Weather Observations for Parawa West

IDS60801

Issued at 8:02 pm CST Sunday 25 June 2017 (issued every 30 minutes, with the page automatically refreshed every 10 minutes)

About weather observations | Map of weather stations | Latest weather observations for SA | Other Formats
Station Details ID: 023875 Name: SECOND VALLEY FOREST AWS Lat: -35.57 Lon: 138.29 Height: 341.0 m
Data from the previous 72 hours. | See also: Recent months at Parawa West
Date/Time
CST
Temp
°C
App
Temp
°C
Dew
Point
°C
Rel
Hum
%
Delta-T
°C
Wind Press
QNH
hPa
Press
MSL
hPa
Rain since
9am
mm
Dir  Spd
km/h
Gust
km/h
Spd
kts
Gust
kts
25/08:00pm 8.6 6.9 8.2 97 0.2 NW 7 9 4 5 1020.7 1020.9 0.4
25/07:30pm 8.6 6.8 8.0 96 0.3 NW 7 11 4 6 1020.5 1020.7 0.4
25/07:00pm 8.6 6.7 7.7 94 0.4 WNW 7 13 4 7 1020.4 1020.6 0.4
25/06:30pm 9.0 6.4 7.9 93 0.5 WNW 11 15 6 8 1020.1 1020.4 0.4
25/06:00pm 9.1 6.6 8.0 93 0.5 W 11 15 6 8 1020.0 1020.3 0.4
25/05:30pm 9.7 7.7 8.5 92 0.6 WSW 9 13 5 7 1019.9 1020.2 0.4
25/05:00pm 9.8 8.2 8.7 93 0.5 WNW 7 11 4 6 1019.6 1019.8 0.4
25/04:30pm 9.9 8.4 8.5 91 0.7 WNW 6 9 3 5 1019.5 1019.7 0.4
25/04:00pm 10.8 8.1 7.3 79 1.7 WNW 11 17 6 9 1019.4 1019.6 0.4
25/03:30pm 11.4 9.1 7.3 76 2.0 WNW 9 13 5 7 1019.1 1019.3 0.4
25/03:00pm 12.0 8.5 7.1 72 2.4 W 15 24 8 13 1018.9 1019.1 0.4
25/02:30pm 11.7 7.7 6.6 71 2.5 W 17 24 9 13 1018.7 1018.9 0.4
25/02:00pm 11.2 6.8 6.7 74 2.2 W 19 30 10 16 1018.6 1018.8 0.4
25/01:30pm 10.8 7.2 6.9 77 1.9 W 15 24 8 13 1018.8 1019.0 0.4
25/01:00pm 10.4 7.1 8.0 85 1.2 W 15 22 8 12 1018.9 1019.1 0.4
25/12:30pm 10.6 7.9 8.9 89 0.9 W 13 20 7 11 1019.2 1019.4 0.4
25/12:00pm 10.1 7.9 9.2 94 0.5 W 11 19 6 10 1019.5 1019.7 0.2
25/11:30am 9.5 6.8 9.0 97 0.2 W 13 19 7 10 1019.7 1020.0 0.2
25/11:00am 9.8 8.3 9.3 97 0.3 W 7 20 4 11 1019.7 1020.0 0.0
25/10:30am 9.4 7.1 8.9 97 0.2 W 11 19 6 10 1019.7 1020.0 0.0
25/10:00am 9.4 7.0 8.8 96 0.3 W 11 17 6 9 1019.6 1019.8 0.0
25/09:30am 9.2 6.7 8.4 95 0.4 W 11 15 6 8 1019.4 1019.6 0.0
25/09:00am 8.9 6.8 8.1 95 0.4 W 9 13 5 7 1019.1 1019.3 -
25/08:30am 8.3 6.5 7.9 97 0.2 WNW 7 9 4 5 1018.9 1019.1 -
25/08:00am 7.7 5.9 7.3 97 0.2 WNW 6 9 3 5 1018.7 1018.9 -
25/07:30am 7.8 5.5 7.4 97 0.2 W 9 11 5 6 1018.7 1018.9 -
25/07:00am 7.8 5.5 7.4 97 0.2 W 9 11 5 6 1018.4 1018.6 -
25/06:30am 7.6 5.6 7.2 97 0.2 W 7 9 4 5 1018.0 1018.2 -
25/06:00am 7.7 5.9 7.3 97 0.2 W 6 9 3 5 1017.7 1017.9 -
25/05:30am 7.7 5.9 7.1 96 0.3 W 6 9 3 5 1017.4 1017.6 -
25/05:00am 8.2 6.4 7.8 97 0.2 WSW 7 13 4 7 1017.4 1017.6 -
25/04:00am 8.1 6.2 7.7 97 0.2 WSW 7 9 4 5 1017.5 1017.7 -
25/03:30am 8.6 7.0 8.2 97 0.2 WSW 6 7 3 4 1017.8 1018.0 -
25/03:00am 8.6 7.0 8.2 97 0.2 SSW 6 6 3 3 1017.9 1018.1 -
25/02:30am 8.5 6.9 8.1 97 0.2 S 6 6 3 3 1018.0 1018.2 -
25/02:00am 8.8 7.7 8.4 97 0.2 S 4 6 2 3 1018.1 1018.3 -
25/01:30am 8.6 7.0 8.2 97 0.2 S 6 6 3 3 1018.2 1018.4 -
25/01:00am 8.8 7.8 8.7 99 0.0 S 4 6 2 3 1018.1 1018.3 -
25/12:30am 8.8 8.5 8.7 99 0.0 CALM 0 0 0 0 1018.3 1018.5 -
25/12:00am 8.4 8.0 8.3 99 0.0 CALM 0 0 0 0 1018.3 1018.5 -
 
Date/Time
CST
Temp
°C
App
Temp
°C
Dew
Point
°C
Rel
Hum
%
Delta-T
°C
Wind Press
QNH
hPa
Press
MSL
hPa
Rain since
9am
mm
Dir  Spd
km/h
Gust
km/h
Spd
kts
Gust
kts
24/11:30pm 8.4 7.3 8.4 100 0.0 S 4 4 2 2 1018.4 1018.6 -
24/11:00pm 8.4 7.3 8.4 100 0.0 S 4 4 2 2 1018.4 1018.6 -
24/10:30pm 8.4 7.3 8.4 100 0.0 S 4 4 2 2 1018.4 1018.6 -
24/10:00pm 8.3 7.2 8.3 100 0.0 S 4 6 2 3 1018.3 1018.5 -
24/09:30pm 8.5 7.4 8.5 100 0.0 S 4 4 2 2 1018.5 1018.7 -
24/09:00pm 8.6 7.1 8.6 100 0.0 S 6 7 3 4 1018.7 1018.9 -
24/08:30pm 8.8 7.4 8.7 99 0.0 S 6 7 3 4 1018.6 1018.8 -
24/08:00pm 9.2 7.9 9.2 100 0.0 S 6 7 3 4 1018.6 1018.8 -
24/07:30pm 9.3 7.8 9.2 99 0.1 S 7 9 4 5 1018.7 1018.9 -
24/07:00pm 9.7 8.5 9.6 99 0.1 S 6 7 3 4 1018.5 1018.7 -
24/06:30pm 9.9 9.1 9.6 98 0.2 S 4 7 2 4 1018.3 1018.5 -
24/06:00pm 9.8 8.9 9.3 97 0.3 S 4 6 2 3 1018.2 1018.4 -
24/05:30pm 10.2 9.4 9.7 97 0.3 S 4 6 2 3 1018.1 1018.3 -
24/05:00pm 10.4 9.3 9.9 97 0.3 S 6 9 3 5 1018.0 1018.2 -
24/04:30pm 10.8 9.8 10.2 96 0.3 S 6 9 3 5 1017.9 1018.1 -
24/04:00pm 11.4 10.3 10.1 92 0.7 SSW 6 7 3 4 1017.8 1018.0 -
24/03:30pm 11.6 10.7 10.5 93 0.6 SSW 6 7 3 4 1017.8 1018.0 -
24/03:00pm 11.5 11.1 11.0 97 0.3 S 4 7 2 4 1017.8 1018.0 0.4
24/02:30pm 11.1 10.0 10.5 96 0.3 S 7 9 4 5 1018.0 1018.2 0.4
24/02:00pm 11.7 10.3 9.6 87 1.1 SSW 7 13 4 7 1018.0 1018.2 0.2
24/01:30pm 12.5 9.8 10.4 87 1.1 NNW 15 24 8 13 1018.1 1018.3 0.2
24/01:00pm 11.4 11.5 10.0 91 0.7 CALM 0 4 0 2 1018.5 1018.7 0.2
24/12:30pm 11.7 10.4 9.8 88 1.0 SSE 7 7 4 4 1018.7 1018.9 0.0
24/12:00pm 11.7 10.7 8.9 83 1.4 SSE 4 6 2 3 1019.1 1019.3 0.0
24/11:30am 11.6 10.2 8.8 83 1.4 SSE 6 6 3 3 1019.5 1019.7 0.0
24/11:00am 11.9 10.6 9.1 83 1.4 SSE 6 7 3 4 1019.8 1020.1 0.0
24/10:30am 12.9 12.5 11.0 88 1.0 E 4 7 2 4 1019.9 1020.2 0.0
24/10:00am 11.7 11.2 10.8 94 0.5 ESE 4 7 2 4 1020.1 1020.4 0.0
24/09:30am 11.0 9.5 10.4 96 0.3 SE 9 13 5 7 1019.8 1020.1 0.0
24/09:00am 10.9 9.4 10.4 97 0.3 ESE 9 13 5 7 1019.6 1019.8 -
24/08:30am 9.7 8.9 9.6 99 0.1 SSE 4 6 2 3 1019.5 1019.7 -
24/08:00am 8.9 8.6 8.8 99 0.0 CALM 0 2 0 1 1019.6 1019.8 -
24/07:30am 8.7 7.6 8.6 99 0.0 SSE 4 6 2 3 1019.3 1019.5 -
24/07:00am 9.0 8.0 8.9 99 0.0 SSE 4 4 2 2 1019.1 1019.3 -
24/06:30am 9.3 8.8 9.2 99 0.1 SSE 2 4 1 2 1018.9 1019.1 -
24/06:00am 9.1 7.5 8.8 98 0.1 S 7 9 4 5 1018.7 1018.9 -
24/05:30am 9.6 8.7 9.3 98 0.2 S 4 6 2 3 1018.7 1018.9 -
24/05:00am 9.9 9.5 9.8 99 0.1 S 2 4 1 2 1018.7 1018.9 -
24/04:30am 9.5 - 9.2 98 0.2 - - - - - 1018.6 1018.8 -
24/04:00am 9.9 9.1 9.6 98 0.2 S 4 6 2 3 1018.5 1018.7 -
24/03:30am 10.0 10.0 9.7 98 0.2 CALM 0 2 0 1 1018.5 1018.7 -
24/03:00am 9.8 8.6 9.5 98 0.2 S 6 6 3 3 1018.4 1018.6 -
24/02:30am 9.1 7.6 8.6 97 0.2 S 6 6 3 3 1018.4 1018.6 -
24/02:00am 8.7 7.0 8.3 97 0.2 S 7 7 4 4 1018.4 1018.6 -
24/01:30am 8.7 7.6 8.3 97 0.2 S 4 6 2 3 1018.4 1018.6 -
24/01:00am 8.8 7.3 8.4 97 0.2 SSW 6 9 3 5 1018.5 1018.7 -
24/12:30am 9.7 8.5 9.4 98 0.2 SSW 6 7 3 4 1018.6 1018.8 -
24/12:00am 9.5 8.2 9.2 98 0.2 SSW 6 7 3 4 1018.7 1018.9 -
 
Date/Time
CST
Temp
°C
App
Temp
°C
Dew
Point
°C
Rel
Hum
%
Delta-T
°C
Wind Press
QNH
hPa
Press
MSL
hPa
Rain since
9am
mm
Dir  Spd
km/h
Gust
km/h
Spd
kts
Gust
kts
23/11:30pm 9.5 8.2 9.2 98 0.2 S 6 7 3 4 1018.6 1018.8 -
23/11:00pm 9.6 8.7 9.1 97 0.3 S 4 6 2 3 1018.6 1018.8 -
23/10:30pm 9.4 8.0 8.8 96 0.3 S 6 7 3 4 1018.8 1019.0 -
23/10:00pm 10.2 9.0 9.4 95 0.4 SW 6 7 3 4 1018.7 1018.9 -
23/09:30pm 10.6 9.4 9.5 93 0.6 SW 6 9 3 5 1018.7 1018.9 -
23/09:00pm 10.9 10.1 9.5 91 0.7 W 4 7 2 4 1018.6 1018.8 -
23/08:30pm 11.0 10.1 9.3 89 0.9 W 4 6 2 3 1018.3 1018.5 -
23/08:00pm 11.0 10.0 8.9 87 1.1 WNW 4 6 2 3 1018.1 1018.3 -
23/07:30pm 10.9 9.5 9.0 88 1.0 W 6 7 3 4 1018.1 1018.3 -
23/07:00pm 11.0 9.3 8.4 84 1.3 W 7 9 4 5 1017.9 1018.1 -
23/06:30pm 11.0 9.6 8.9 87 1.1 NW 6 7 3 4 1017.5 1017.7 -
23/06:00pm 10.9 9.4 9.0 88 1.0 NW 7 7 4 4 1017.4 1017.6 -
23/05:30pm 11.1 9.6 9.2 88 1.0 NW 7 9 4 5 1017.1 1017.3 -
23/05:00pm 11.5 10.3 9.4 87 1.1 NW 6 9 3 5 1016.8 1017.0 -
23/04:30pm 12.4 11.1 9.8 84 1.3 NW 7 9 4 5 1016.7 1016.9 -
23/04:00pm 12.7 11.0 9.7 82 1.6 NW 9 15 5 8 1016.7 1016.9 -
23/03:30pm 12.2 10.4 9.6 84 1.3 NW 9 15 5 8 1016.5 1016.7 -
23/03:00pm 12.4 10.7 9.8 84 1.3 NW 9 13 5 7 1016.6 1016.8 -
23/02:30pm 12.9 10.3 9.5 80 1.8 NW 13 19 7 10 1016.6 1016.8 -
23/02:00pm 12.1 9.7 10.0 87 1.1 NW 13 19 7 10 1016.7 1016.9 -
23/01:30pm 12.4 10.1 10.3 87 1.1 NW 13 19 7 10 1017.0 1017.2 -
23/01:00pm 12.5 10.1 9.9 84 1.4 NW 13 19 7 10 1017.3 1017.5 -
23/12:30pm 12.9 11.0 10.4 85 1.3 NW 11 19 6 10 1017.4 1017.6 -
23/12:00pm 13.0 10.6 10.2 83 1.5 NW 13 19 7 10 1017.8 1018.0 -
23/11:30am 13.1 11.4 9.9 81 1.7 NNW 9 17 5 9 1018.0 1018.2 -
23/11:00am 12.2 10.2 8.5 78 1.9 NNW 9 15 5 8 1018.4 1018.6 -
23/10:30am 12.0 8.9 9.0 82 1.5 NW 15 22 8 12 1018.5 1018.7 -
23/10:00am 12.3 10.5 9.5 83 1.4 NW 9 17 5 9 1018.4 1018.6 -
23/09:30am 11.7 10.4 9.8 88 1.0 NNW 7 11 4 6 1018.5 1018.7 -
23/09:00am 11.0 9.5 9.3 89 0.9 NNW 7 13 4 7 1018.2 1018.4 -
23/08:30am 9.4 8.3 8.6 95 0.4 N 4 9 2 5 1018.3 1018.5 -
23/08:00am 8.8 7.6 7.9 94 0.4 NNW 4 7 2 4 1018.1 1018.3 -
23/07:30am 9.1 7.4 8.3 95 0.4 NNW 7 13 4 7 1018.0 1018.2 -
23/07:00am 8.2 6.7 6.7 90 0.7 N 4 6 2 3 1017.8 1018.0 -
23/06:30am 8.3 6.7 6.4 88 0.9 NNW 4 11 2 6 1017.9 1018.1 -
23/06:00am 8.1 6.1 6.1 87 0.9 NNW 6 7 3 4 1017.7 1017.9 -
23/05:30am 7.2 6.0 4.7 84 1.1 CALM 0 0 0 0 1017.1 1017.3 -
23/05:00am 7.6 6.4 4.4 80 1.4 CALM 0 0 0 0 1017.5 1017.7 -
23/04:00am 7.5 6.2 4.3 80 1.4 CALM 0 2 0 1 1018.0 1018.2 -
23/03:30am 7.4 6.0 3.8 78 1.6 CALM 0 0 0 0 1018.0 1018.2 -
23/03:00am 7.8 6.6 4.4 79 1.5 CALM 0 0 0 0 1018.3 1018.5 -
23/02:30am 7.8 6.6 4.4 79 1.5 CALM 0 4 0 2 1018.4 1018.6 -
23/02:00am 8.1 6.6 4.9 80 1.4 N 2 6 1 3 1018.7 1018.9 -
23/01:00am 8.2 7.0 4.8 79 1.5 CALM 0 2 0 1 1018.9 1019.1 0.0
23/12:30am 9.4 7.5 4.8 73 2.1 N 4 11 2 6 1019.2 1019.4 0.0
23/12:00am 9.2 6.8 2.1 61 3.0 N 4 6 2 3 1019.6 1019.8 0.0
 
Date/Time
CST
Temp
°C
App
Temp
°C
Dew
Point
°C
Rel
Hum
%
Delta-T
°C
Wind Press
QNH
hPa
Press
MSL
hPa
Rain since
9am
mm
Dir  Spd
km/h
Gust
km/h
Spd
kts
Gust
kts
22/11:30pm 9.0 6.8 1.0 57 3.3 N 2 7 1 4 1019.8 1020.1 0.0
22/11:00pm 9.7 7.5 1.1 55 3.6 N 2 4 1 2 1020.1 1020.4 0.0
22/10:30pm 9.7 7.6 1.4 56 3.5 N 2 4 1 2 1020.4 1020.6 0.0
22/10:00pm 10.7 8.6 1.8 54 3.8 N 2 4 1 2 1020.6 1020.8 0.0
22/09:30pm 10.6 8.5 1.7 54 3.8 N 2 6 1 3 1020.7 1020.9 0.0
22/09:00pm 10.8 8.4 1.9 54 3.8 N 4 6 2 3 1021.1 1021.3 0.0
22/08:30pm 10.3 8.3 2.2 57 3.5 N 2 6 1 3 1021.0 1021.2 0.0

Other Formats:

Comma delimited format used in spreadsheet applications
http://www.bom.gov.au/fwo/IDS60801/IDS60801.94811.axf

JavaScript Object Notation format (JSON) in row-major order
http://www.bom.gov.au/fwo/IDS60801/IDS60801.94811.json